sensor_id;sensor_type;location;lat;lon;timestamp;P1;durP1;ratioP1;P2;durP2;ratioP2
17596;SDS011;8917;50.942;6.946;2022-11-27T00:02:24;7.07;;;3.60;;
17596;SDS011;8917;50.942;6.946;2022-11-27T00:04:52;7.17;;;3.50;;
17596;SDS011;8917;50.942;6.946;2022-11-27T00:07:19;6.90;;;3.63;;
17596;SDS011;8917;50.942;6.946;2022-11-27T00:09:46;8.53;;;3.73;;
17596;SDS011;8917;50.942;6.946;2022-11-27T00:12:14;5.87;;;3.60;;
17596;SDS011;8917;50.942;6.946;2022-11-27T00:14:42;10.27;;;3.70;;
17596;SDS011;8917;50.942;6.946;2022-11-27T00:17:10;8.63;;;3.90;;
17596;SDS011;8917;50.942;6.946;2022-11-27T00:19:37;5.80;;;3.63;;
17596;SDS011;8917;50.942;6.946;2022-11-27T00:22:04;6.37;;;3.73;;
17596;SDS011;8917;50.942;6.946;2022-11-27T00:24:32;7.83;;;3.47;;
17596;SDS011;8917;50.942;6.946;2022-11-27T00:26:59;8.10;;;3.27;;
17596;SDS011;8917;50.942;6.946;2022-11-27T00:29:26;8.60;;;3.43;;
17596;SDS011;8917;50.942;6.946;2022-11-27T00:31:56;9.20;;;3.50;;
17596;SDS011;8917;50.942;6.946;2022-11-27T00:34:23;7.17;;;3.70;;
17596;SDS011;8917;50.942;6.946;2022-11-27T00:36:50;5.73;;;3.23;;
17596;SDS011;8917;50.942;6.946;2022-11-27T00:39:18;6.47;;;3.60;;
17596;SDS011;8917;50.942;6.946;2022-11-27T00:41:45;5.93;;;3.23;;
17596;SDS011;8917;50.942;6.946;2022-11-27T00:44:12;7.03;;;3.23;;
17596;SDS011;8917;50.942;6.946;2022-11-27T00:46:40;4.33;;;2.93;;
17596;SDS011;8917;50.942;6.946;2022-11-27T00:49:09;7.50;;;3.10;;
17596;SDS011;8917;50.942;6.946;2022-11-27T00:51:37;4.27;;;2.93;;
17596;SDS011;8917;50.942;6.946;2022-11-27T00:54:05;7.27;;;3.03;;
17596;SDS011;8917;50.942;6.946;2022-11-27T00:56:33;7.27;;;2.93;;
17596;SDS011;8917;50.942;6.946;2022-11-27T00:59:01;9.90;;;3.50;;
17596;SDS011;8917;50.942;6.946;2022-11-27T01:01:29;8.53;;;2.83;;
17596;SDS011;8917;50.942;6.946;2022-11-27T01:03:58;5.30;;;2.90;;
17596;SDS011;8917;50.942;6.946;2022-11-27T01:06:27;6.03;;;2.73;;
17596;SDS011;8917;50.942;6.946;2022-11-27T01:08:56;6.80;;;2.70;;
17596;SDS011;8917;50.942;6.946;2022-11-27T01:11:24;3.93;;;2.90;;
17596;SDS011;8917;50.942;6.946;2022-11-27T01:13:52;5.17;;;2.43;;
17596;SDS011;8917;50.942;6.946;2022-11-27T01:16:20;6.83;;;2.70;;
17596;SDS011;8917;50.942;6.946;2022-11-27T01:18:47;4.80;;;2.63;;
17596;SDS011;8917;50.942;6.946;2022-11-27T01:21:17;5.47;;;2.90;;
17596;SDS011;8917;50.942;6.946;2022-11-27T01:23:46;3.80;;;2.87;;
17596;SDS011;8917;50.942;6.946;2022-11-27T01:26:14;4.93;;;2.70;;
17596;SDS011;8917;50.942;6.946;2022-11-27T01:28:41;5.97;;;2.67;;
17596;SDS011;8917;50.942;6.946;2022-11-27T01:31:10;5.90;;;2.63;;
17596;SDS011;8917;50.942;6.946;2022-11-27T01:33:38;5.33;;;2.53;;
17596;SDS011;8917;50.942;6.946;2022-11-27T01:36:06;6.53;;;2.47;;
17596;SDS011;8917;50.942;6.946;2022-11-27T01:38:34;7.07;;;2.60;;
17596;SDS011;8917;50.942;6.946;2022-11-27T01:41:04;5.43;;;2.60;;
17596;SDS011;8917;50.942;6.946;2022-11-27T01:43:35;4.63;;;2.90;;
17596;SDS011;8917;50.942;6.946;2022-11-27T01:46:03;4.60;;;2.63;;
17596;SDS011;8917;50.942;6.946;2022-11-27T01:48:30;5.17;;;3.00;;
17596;SDS011;8917;50.942;6.946;2022-11-27T01:50:58;6.70;;;2.97;;
17596;SDS011;8917;50.942;6.946;2022-11-27T01:53:25;4.07;;;2.77;;
17596;SDS011;8917;50.942;6.946;2022-11-27T01:55:53;5.53;;;2.73;;
17596;SDS011;8917;50.942;6.946;2022-11-27T01:58:24;5.37;;;2.50;;
17596;SDS011;8917;50.942;6.946;2022-11-27T02:00:51;6.77;;;3.30;;
17596;SDS011;8917;50.942;6.946;2022-11-27T02:03:19;6.13;;;3.20;;
17596;SDS011;8917;50.942;6.946;2022-11-27T02:05:47;6.13;;;3.10;;
17596;SDS011;8917;50.942;6.946;2022-11-27T02:08:15;5.30;;;2.93;;
17596;SDS011;8917;50.942;6.946;2022-11-27T02:10:45;7.57;;;3.07;;
17596;SDS011;8917;50.942;6.946;2022-11-27T02:13:14;5.57;;;3.07;;
17596;SDS011;8917;50.942;6.946;2022-11-27T02:15:47;7.70;;;3.40;;
17596;SDS011;8917;50.942;6.946;2022-11-27T02:18:18;5.67;;;3.00;;
17596;SDS011;8917;50.942;6.946;2022-11-27T02:20:50;6.67;;;2.93;;
17596;SDS011;8917;50.942;6.946;2022-11-27T02:23:26;5.57;;;3.50;;
17596;SDS011;8917;50.942;6.946;2022-11-27T02:26:02;7.60;;;3.43;;
17596;SDS011;8917;50.942;6.946;2022-11-27T02:28:38;7.93;;;3.73;;
17596;SDS011;8917;50.942;6.946;2022-11-27T02:31:11;7.07;;;3.93;;
17596;SDS011;8917;50.942;6.946;2022-11-27T02:33:42;7.37;;;4.20;;
17596;SDS011;8917;50.942;6.946;2022-11-27T02:36:13;8.07;;;3.53;;
17596;SDS011;8917;50.942;6.946;2022-11-27T02:38:41;9.40;;;4.03;;
17596;SDS011;8917;50.942;6.946;2022-11-27T02:41:11;7.10;;;3.90;;
17596;SDS011;8917;50.942;6.946;2022-11-27T02:43:40;9.23;;;4.93;;
17596;SDS011;8917;50.942;6.946;2022-11-27T02:46:12;11.37;;;4.87;;
17596;SDS011;8917;50.942;6.946;2022-11-27T02:48:41;8.47;;;4.77;;
17596;SDS011;8917;50.942;6.946;2022-11-27T02:51:09;7.70;;;4.93;;
17596;SDS011;8917;50.942;6.946;2022-11-27T02:53:38;7.80;;;5.17;;
17596;SDS011;8917;50.942;6.946;2022-11-27T02:56:08;7.57;;;4.83;;
17596;SDS011;8917;50.942;6.946;2022-11-27T02:58:37;9.37;;;5.30;;
17596;SDS011;8917;50.942;6.946;2022-11-27T03:01:04;11.43;;;5.67;;
17596;SDS011;8917;50.942;6.946;2022-11-27T03:03:34;7.93;;;5.27;;
17596;SDS011;8917;50.942;6.946;2022-11-27T03:06:05;9.10;;;6.13;;
17596;SDS011;8917;50.942;6.946;2022-11-27T03:08:34;11.77;;;5.93;;
17596;SDS011;8917;50.942;6.946;2022-11-27T03:11:05;10.37;;;6.43;;
17596;SDS011;8917;50.942;6.946;2022-11-27T03:13:34;10.93;;;6.43;;
17596;SDS011;8917;50.942;6.946;2022-11-27T03:16:04;9.03;;;6.13;;
17596;SDS011;8917;50.942;6.946;2022-11-27T03:18:37;11.63;;;6.53;;
17596;SDS011;8917;50.942;6.946;2022-11-27T03:21:08;10.33;;;7.03;;
17596;SDS011;8917;50.942;6.946;2022-11-27T03:23:38;9.70;;;6.53;;
17596;SDS011;8917;50.942;6.946;2022-11-27T03:26:06;11.10;;;7.00;;
17596;SDS011;8917;50.942;6.946;2022-11-27T03:28:33;9.93;;;6.60;;
17596;SDS011;8917;50.942;6.946;2022-11-27T03:31:01;12.03;;;7.03;;
17596;SDS011;8917;50.942;6.946;2022-11-27T03:33:28;12.90;;;7.40;;
17596;SDS011;8917;50.942;6.946;2022-11-27T03:35:57;12.43;;;7.37;;
17596;SDS011;8917;50.942;6.946;2022-11-27T03:38:24;13.23;;;6.87;;
17596;SDS011;8917;50.942;6.946;2022-11-27T03:40:53;12.07;;;7.60;;
17596;SDS011;8917;50.942;6.946;2022-11-27T03:43:26;14.07;;;8.00;;
17596;SDS011;8917;50.942;6.946;2022-11-27T03:45:57;11.67;;;8.00;;
17596;SDS011;8917;50.942;6.946;2022-11-27T03:48:28;12.00;;;7.13;;
17596;SDS011;8917;50.942;6.946;2022-11-27T03:51:02;11.67;;;7.50;;
17596;SDS011;8917;50.942;6.946;2022-11-27T03:53:34;12.20;;;7.57;;
17596;SDS011;8917;50.942;6.946;2022-11-27T03:56:05;12.80;;;7.50;;
17596;SDS011;8917;50.942;6.946;2022-11-27T03:58:37;11.70;;;6.73;;
17596;SDS011;8917;50.942;6.946;2022-11-27T04:01:06;11.10;;;6.93;;
17596;SDS011;8917;50.942;6.946;2022-11-27T04:03:35;10.83;;;7.33;;
17596;SDS011;8917;50.942;6.946;2022-11-27T04:06:04;11.73;;;8.03;;
17596;SDS011;8917;50.942;6.946;2022-11-27T04:08:31;13.37;;;7.57;;
17596;SDS011;8917;50.942;6.946;2022-11-27T04:10:59;11.30;;;7.70;;
17596;SDS011;8917;50.942;6.946;2022-11-27T04:13:26;12.53;;;7.93;;
17596;SDS011;8917;50.942;6.946;2022-11-27T04:15:53;10.73;;;7.57;;
17596;SDS011;8917;50.942;6.946;2022-11-27T04:18:21;13.40;;;8.53;;
17596;SDS011;8917;50.942;6.946;2022-11-27T04:20:48;12.37;;;7.57;;
17596;SDS011;8917;50.942;6.946;2022-11-27T04:23:17;11.27;;;7.20;;
17596;SDS011;8917;50.942;6.946;2022-11-27T04:25:44;12.97;;;7.53;;
17596;SDS011;8917;50.942;6.946;2022-11-27T04:28:11;11.57;;;7.27;;
17596;SDS011;8917;50.942;6.946;2022-11-27T04:30:39;12.53;;;7.70;;
17596;SDS011;8917;50.942;6.946;2022-11-27T04:33:06;12.53;;;7.27;;
17596;SDS011;8917;50.942;6.946;2022-11-27T04:35:33;13.77;;;7.33;;
17596;SDS011;8917;50.942;6.946;2022-11-27T04:38:01;10.70;;;6.30;;
17596;SDS011;8917;50.942;6.946;2022-11-27T04:40:29;11.23;;;7.67;;
17596;SDS011;8917;50.942;6.946;2022-11-27T04:42:57;12.70;;;7.37;;
17596;SDS011;8917;50.942;6.946;2022-11-27T04:45:24;9.00;;;6.07;;
17596;SDS011;8917;50.942;6.946;2022-11-27T04:47:51;12.47;;;6.93;;
17596;SDS011;8917;50.942;6.946;2022-11-27T04:50:19;12.20;;;7.03;;
17596;SDS011;8917;50.942;6.946;2022-11-27T04:52:46;12.97;;;6.77;;
17596;SDS011;8917;50.942;6.946;2022-11-27T04:55:13;10.10;;;6.50;;
17596;SDS011;8917;50.942;6.946;2022-11-27T04:57:42;9.23;;;6.17;;
17596;SDS011;8917;50.942;6.946;2022-11-27T05:00:10;12.97;;;6.90;;
17596;SDS011;8917;50.942;6.946;2022-11-27T05:02:38;11.70;;;6.67;;
17596;SDS011;8917;50.942;6.946;2022-11-27T05:05:05;11.20;;;5.90;;
17596;SDS011;8917;50.942;6.946;2022-11-27T05:07:33;12.20;;;6.17;;
17596;SDS011;8917;50.942;6.946;2022-11-27T05:10:00;9.53;;;6.50;;
17596;SDS011;8917;50.942;6.946;2022-11-27T05:12:27;7.77;;;5.60;;
17596;SDS011;8917;50.942;6.946;2022-11-27T05:14:56;10.00;;;5.70;;
17596;SDS011;8917;50.942;6.946;2022-11-27T05:17:23;9.33;;;5.83;;
17596;SDS011;8917;50.942;6.946;2022-11-27T05:19:51;7.70;;;5.53;;
17596;SDS011;8917;50.942;6.946;2022-11-27T05:22:18;9.03;;;5.73;;
17596;SDS011;8917;50.942;6.946;2022-11-27T05:24:45;9.93;;;5.33;;
17596;SDS011;8917;50.942;6.946;2022-11-27T05:27:13;8.47;;;5.40;;
17596;SDS011;8917;50.942;6.946;2022-11-27T05:29:40;8.90;;;5.40;;
17596;SDS011;8917;50.942;6.946;2022-11-27T05:32:09;9.17;;;5.77;;
17596;SDS011;8917;50.942;6.946;2022-11-27T05:34:36;11.37;;;5.47;;
17596;SDS011;8917;50.942;6.946;2022-11-27T05:37:04;6.63;;;5.10;;
17596;SDS011;8917;50.942;6.946;2022-11-27T05:39:31;7.00;;;5.23;;
17596;SDS011;8917;50.942;6.946;2022-11-27T05:41:59;8.67;;;5.23;;
17596;SDS011;8917;50.942;6.946;2022-11-27T05:44:26;7.77;;;4.77;;
17596;SDS011;8917;50.942;6.946;2022-11-27T05:46:53;7.93;;;4.90;;
17596;SDS011;8917;50.942;6.946;2022-11-27T05:49:23;8.13;;;5.30;;
17596;SDS011;8917;50.942;6.946;2022-11-27T05:51:50;8.90;;;5.03;;
17596;SDS011;8917;50.942;6.946;2022-11-27T05:54:18;9.10;;;5.47;;
17596;SDS011;8917;50.942;6.946;2022-11-27T05:56:45;9.30;;;5.70;;
17596;SDS011;8917;50.942;6.946;2022-11-27T05:59:13;7.80;;;4.43;;
17596;SDS011;8917;50.942;6.946;2022-11-27T06:01:40;8.37;;;4.67;;
17596;SDS011;8917;50.942;6.946;2022-11-27T06:04:07;7.20;;;4.60;;
17596;SDS011;8917;50.942;6.946;2022-11-27T06:06:36;8.13;;;5.13;;
17596;SDS011;8917;50.942;6.946;2022-11-27T06:09:03;5.93;;;4.57;;
17596;SDS011;8917;50.942;6.946;2022-11-27T06:11:31;6.70;;;4.37;;
17596;SDS011;8917;50.942;6.946;2022-11-27T06:13:58;6.83;;;4.80;;
17596;SDS011;8917;50.942;6.946;2022-11-27T06:16:26;9.43;;;4.67;;
17596;SDS011;8917;50.942;6.946;2022-11-27T06:18:53;11.47;;;5.33;;
17596;SDS011;8917;50.942;6.946;2022-11-27T06:21:21;6.33;;;4.90;;
17596;SDS011;8917;50.942;6.946;2022-11-27T06:23:53;6.63;;;4.60;;
17596;SDS011;8917;50.942;6.946;2022-11-27T06:26:21;9.03;;;4.90;;
17596;SDS011;8917;50.942;6.946;2022-11-27T06:28:48;7.53;;;4.87;;
17596;SDS011;8917;50.942;6.946;2022-11-27T06:31:16;6.73;;;4.33;;
17596;SDS011;8917;50.942;6.946;2022-11-27T06:33:44;8.83;;;5.27;;
17596;SDS011;8917;50.942;6.946;2022-11-27T06:36:12;5.93;;;4.70;;
17596;SDS011;8917;50.942;6.946;2022-11-27T06:38:39;7.43;;;4.80;;
17596;SDS011;8917;50.942;6.946;2022-11-27T06:41:09;6.70;;;4.10;;
17596;SDS011;8917;50.942;6.946;2022-11-27T06:43:36;6.57;;;4.50;;
17596;SDS011;8917;50.942;6.946;2022-11-27T06:46:04;7.87;;;4.50;;
17596;SDS011;8917;50.942;6.946;2022-11-27T06:48:32;6.77;;;4.47;;
17596;SDS011;8917;50.942;6.946;2022-11-27T06:51:00;6.63;;;4.60;;
17596;SDS011;8917;50.942;6.946;2022-11-27T06:53:27;6.10;;;4.40;;
17596;SDS011;8917;50.942;6.946;2022-11-27T06:55:55;6.30;;;3.97;;
17596;SDS011;8917;50.942;6.946;2022-11-27T06:58:24;6.60;;;3.97;;
17596;SDS011;8917;50.942;6.946;2022-11-27T07:00:55;6.60;;;4.50;;
17596;SDS011;8917;50.942;6.946;2022-11-27T07:03:23;6.97;;;4.27;;
17596;SDS011;8917;50.942;6.946;2022-11-27T07:05:50;6.00;;;4.40;;
17596;SDS011;8917;50.942;6.946;2022-11-27T07:08:17;6.40;;;4.17;;
17596;SDS011;8917;50.942;6.946;2022-11-27T07:10:44;4.77;;;4.17;;
17596;SDS011;8917;50.942;6.946;2022-11-27T07:13:12;5.97;;;4.00;;
17596;SDS011;8917;50.942;6.946;2022-11-27T07:15:41;6.40;;;4.60;;
17596;SDS011;8917;50.942;6.946;2022-11-27T07:18:08;9.43;;;4.70;;
17596;SDS011;8917;50.942;6.946;2022-11-27T07:20:36;7.30;;;3.97;;
17596;SDS011;8917;50.942;6.946;2022-11-27T07:23:03;7.80;;;4.63;;
17596;SDS011;8917;50.942;6.946;2022-11-27T07:25:30;7.77;;;4.00;;
17596;SDS011;8917;50.942;6.946;2022-11-27T07:27:58;5.57;;;3.33;;
17596;SDS011;8917;50.942;6.946;2022-11-27T07:30:25;4.33;;;3.47;;
17596;SDS011;8917;50.942;6.946;2022-11-27T07:32:54;5.77;;;3.63;;
17596;SDS011;8917;50.942;6.946;2022-11-27T07:35:21;5.20;;;3.50;;
17596;SDS011;8917;50.942;6.946;2022-11-27T07:37:49;5.80;;;4.17;;
17596;SDS011;8917;50.942;6.946;2022-11-27T07:40:16;5.97;;;3.73;;
17596;SDS011;8917;50.942;6.946;2022-11-27T07:42:44;7.00;;;3.93;;
17596;SDS011;8917;50.942;6.946;2022-11-27T07:45:11;6.80;;;3.80;;
17596;SDS011;8917;50.942;6.946;2022-11-27T07:47:39;8.77;;;3.33;;
17596;SDS011;8917;50.942;6.946;2022-11-27T07:50:08;5.73;;;3.80;;
17596;SDS011;8917;50.942;6.946;2022-11-27T07:52:35;6.53;;;4.07;;
17596;SDS011;8917;50.942;6.946;2022-11-27T07:55:03;5.10;;;3.83;;
17596;SDS011;8917;50.942;6.946;2022-11-27T07:57:31;4.70;;;3.80;;
17596;SDS011;8917;50.942;6.946;2022-11-27T07:59:58;12.97;;;10.00;;
17596;SDS011;8917;50.942;6.946;2022-11-27T08:02:25;8.20;;;4.20;;
17596;SDS011;8917;50.942;6.946;2022-11-27T08:04:53;7.20;;;4.07;;
17596;SDS011;8917;50.942;6.946;2022-11-27T08:07:26;4.13;;;3.67;;
17596;SDS011;8917;50.942;6.946;2022-11-27T08:09:53;6.20;;;3.77;;
17596;SDS011;8917;50.942;6.946;2022-11-27T08:12:21;5.30;;;3.63;;
17596;SDS011;8917;50.942;6.946;2022-11-27T08:14:49;4.07;;;3.60;;
17596;SDS011;8917;50.942;6.946;2022-11-27T08:17:16;6.17;;;4.03;;
17596;SDS011;8917;50.942;6.946;2022-11-27T08:19:43;8.67;;;4.00;;
17596;SDS011;8917;50.942;6.946;2022-11-27T08:22:11;6.17;;;3.90;;
17596;SDS011;8917;50.942;6.946;2022-11-27T08:24:40;5.77;;;3.90;;
17596;SDS011;8917;50.942;6.946;2022-11-27T08:27:07;6.90;;;4.57;;
17596;SDS011;8917;50.942;6.946;2022-11-27T08:29:35;5.67;;;4.17;;
17596;SDS011;8917;50.942;6.946;2022-11-27T08:32:02;5.13;;;4.63;;
17596;SDS011;8917;50.942;6.946;2022-11-27T08:34:30;7.10;;;4.30;;
17596;SDS011;8917;50.942;6.946;2022-11-27T08:36:57;6.10;;;4.30;;
17596;SDS011;8917;50.942;6.946;2022-11-27T08:39:24;6.37;;;4.20;;
17596;SDS011;8917;50.942;6.946;2022-11-27T08:41:53;7.87;;;4.40;;
17596;SDS011;8917;50.942;6.946;2022-11-27T08:44:21;5.77;;;4.27;;
17596;SDS011;8917;50.942;6.946;2022-11-27T08:46:48;6.10;;;4.07;;
17596;SDS011;8917;50.942;6.946;2022-11-27T08:49:15;8.07;;;4.63;;
17596;SDS011;8917;50.942;6.946;2022-11-27T08:51:43;9.00;;;5.10;;
17596;SDS011;8917;50.942;6.946;2022-11-27T08:54:10;5.50;;;4.23;;
17596;SDS011;8917;50.942;6.946;2022-11-27T08:56:37;11.63;;;4.90;;
17596;SDS011;8917;50.942;6.946;2022-11-27T08:59:06;6.67;;;4.17;;
17596;SDS011;8917;50.942;6.946;2022-11-27T09:01:33;7.73;;;4.77;;
17596;SDS011;8917;50.942;6.946;2022-11-27T09:04:01;9.27;;;5.17;;
17596;SDS011;8917;50.942;6.946;2022-11-27T09:06:29;6.40;;;4.53;;
17596;SDS011;8917;50.942;6.946;2022-11-27T09:08:58;6.80;;;4.53;;
17596;SDS011;8917;50.942;6.946;2022-11-27T09:11:26;5.93;;;4.37;;
17596;SDS011;8917;50.942;6.946;2022-11-27T09:13:55;8.50;;;4.50;;
17596;SDS011;8917;50.942;6.946;2022-11-27T09:16:23;7.90;;;4.70;;
17596;SDS011;8917;50.942;6.946;2022-11-27T09:18:52;7.43;;;4.60;;
17596;SDS011;8917;50.942;6.946;2022-11-27T09:21:20;8.90;;;4.33;;
17596;SDS011;8917;50.942;6.946;2022-11-27T09:23:50;7.00;;;4.60;;
17596;SDS011;8917;50.942;6.946;2022-11-27T09:26:18;6.03;;;3.80;;
17596;SDS011;8917;50.942;6.946;2022-11-27T09:28:47;8.57;;;4.23;;
17596;SDS011;8917;50.942;6.946;2022-11-27T09:31:14;5.63;;;4.30;;
17596;SDS011;8917;50.942;6.946;2022-11-27T09:33:43;8.27;;;4.67;;
17596;SDS011;8917;50.942;6.946;2022-11-27T09:36:11;6.67;;;4.07;;
17596;SDS011;8917;50.942;6.946;2022-11-27T09:38:39;6.47;;;4.47;;
17596;SDS011;8917;50.942;6.946;2022-11-27T09:41:12;7.20;;;4.57;;
17596;SDS011;8917;50.942;6.946;2022-11-27T09:43:42;5.73;;;4.33;;
17596;SDS011;8917;50.942;6.946;2022-11-27T09:46:12;7.37;;;4.67;;
17596;SDS011;8917;50.942;6.946;2022-11-27T09:48:41;6.57;;;4.03;;
17596;SDS011;8917;50.942;6.946;2022-11-27T09:51:12;6.60;;;4.40;;
17596;SDS011;8917;50.942;6.946;2022-11-27T09:53:42;7.53;;;5.03;;
17596;SDS011;8917;50.942;6.946;2022-11-27T09:56:12;7.80;;;5.03;;
17596;SDS011;8917;50.942;6.946;2022-11-27T09:58:41;6.77;;;4.50;;
17596;SDS011;8917;50.942;6.946;2022-11-27T10:01:10;8.80;;;5.20;;
17596;SDS011;8917;50.942;6.946;2022-11-27T10:03:39;10.17;;;5.07;;
17596;SDS011;8917;50.942;6.946;2022-11-27T10:06:13;9.03;;;4.90;;
17596;SDS011;8917;50.942;6.946;2022-11-27T10:08:46;5.83;;;4.63;;
17596;SDS011;8917;50.942;6.946;2022-11-27T10:11:18;10.47;;;5.30;;
17596;SDS011;8917;50.942;6.946;2022-11-27T10:13:53;7.00;;;4.40;;
17596;SDS011;8917;50.942;6.946;2022-11-27T10:16:24;7.20;;;4.73;;
17596;SDS011;8917;50.942;6.946;2022-11-27T10:18:53;7.47;;;4.60;;
17596;SDS011;8917;50.942;6.946;2022-11-27T10:21:26;8.17;;;5.47;;
17596;SDS011;8917;50.942;6.946;2022-11-27T10:23:55;6.50;;;5.07;;
17596;SDS011;8917;50.942;6.946;2022-11-27T10:26:26;9.00;;;4.80;;
17596;SDS011;8917;50.942;6.946;2022-11-27T10:28:56;5.97;;;4.40;;
17596;SDS011;8917;50.942;6.946;2022-11-27T10:31:30;5.80;;;4.20;;
17596;SDS011;8917;50.942;6.946;2022-11-27T10:33:59;6.63;;;4.23;;
17596;SDS011;8917;50.942;6.946;2022-11-27T10:36:31;6.87;;;4.50;;
17596;SDS011;8917;50.942;6.946;2022-11-27T10:39:02;6.50;;;4.37;;
17596;SDS011;8917;50.942;6.946;2022-11-27T10:41:31;4.63;;;4.23;;
17596;SDS011;8917;50.942;6.946;2022-11-27T10:44:02;5.57;;;4.13;;
17596;SDS011;8917;50.942;6.946;2022-11-27T10:46:34;5.47;;;4.10;;
17596;SDS011;8917;50.942;6.946;2022-11-27T10:49:03;6.83;;;4.07;;
17596;SDS011;8917;50.942;6.946;2022-11-27T10:51:33;6.53;;;4.63;;
17596;SDS011;8917;50.942;6.946;2022-11-27T10:54:02;7.30;;;4.10;;
17596;SDS011;8917;50.942;6.946;2022-11-27T10:56:35;5.93;;;4.30;;
17596;SDS011;8917;50.942;6.946;2022-11-27T10:59:07;6.43;;;3.87;;
17596;SDS011;8917;50.942;6.946;2022-11-27T11:01:40;9.30;;;4.50;;
17596;SDS011;8917;50.942;6.946;2022-11-27T11:04:08;5.83;;;4.50;;
17596;SDS011;8917;50.942;6.946;2022-11-27T11:06:38;8.23;;;4.53;;
17596;SDS011;8917;50.942;6.946;2022-11-27T11:09:11;8.57;;;4.63;;
17596;SDS011;8917;50.942;6.946;2022-11-27T11:11:39;5.80;;;4.37;;
17596;SDS011;8917;50.942;6.946;2022-11-27T11:14:13;6.90;;;4.60;;
17596;SDS011;8917;50.942;6.946;2022-11-27T11:16:42;7.27;;;4.83;;
17596;SDS011;8917;50.942;6.946;2022-11-27T11:19:19;7.43;;;4.70;;
17596;SDS011;8917;50.942;6.946;2022-11-27T11:21:49;5.87;;;4.10;;
17596;SDS011;8917;50.942;6.946;2022-11-27T11:24:19;7.73;;;4.87;;
17596;SDS011;8917;50.942;6.946;2022-11-27T11:26:49;5.73;;;4.13;;
17596;SDS011;8917;50.942;6.946;2022-11-27T11:29:21;6.67;;;4.40;;
17596;SDS011;8917;50.942;6.946;2022-11-27T11:31:52;4.40;;;3.80;;
17596;SDS011;8917;50.942;6.946;2022-11-27T11:34:21;6.47;;;3.80;;
17596;SDS011;8917;50.942;6.946;2022-11-27T11:36:57;6.07;;;3.83;;
17596;SDS011;8917;50.942;6.946;2022-11-27T11:39:25;5.43;;;3.83;;
17596;SDS011;8917;50.942;6.946;2022-11-27T11:41:53;4.77;;;4.27;;
17596;SDS011;8917;50.942;6.946;2022-11-27T11:44:22;7.30;;;4.40;;
17596;SDS011;8917;50.942;6.946;2022-11-27T11:46:51;7.27;;;4.40;;
17596;SDS011;8917;50.942;6.946;2022-11-27T11:49:20;7.60;;;4.53;;
17596;SDS011;8917;50.942;6.946;2022-11-27T11:51:56;6.07;;;4.10;;
17596;SDS011;8917;50.942;6.946;2022-11-27T11:54:32;7.30;;;4.00;;
17596;SDS011;8917;50.942;6.946;2022-11-27T11:57:04;7.23;;;4.60;;
17596;SDS011;8917;50.942;6.946;2022-11-27T11:59:35;9.13;;;4.43;;
17596;SDS011;8917;50.942;6.946;2022-11-27T12:02:17;5.77;;;3.87;;
17596;SDS011;8917;50.942;6.946;2022-11-27T12:04:55;6.20;;;4.20;;
17596;SDS011;8917;50.942;6.946;2022-11-27T12:07:31;6.33;;;4.00;;
17596;SDS011;8917;50.942;6.946;2022-11-27T12:10:02;5.77;;;3.93;;
17596;SDS011;8917;50.942;6.946;2022-11-27T12:12:35;5.67;;;3.73;;
17596;SDS011;8917;50.942;6.946;2022-11-27T12:15:06;4.83;;;4.10;;
17596;SDS011;8917;50.942;6.946;2022-11-27T12:17:40;7.00;;;4.10;;
17596;SDS011;8917;50.942;6.946;2022-11-27T12:20:13;7.50;;;4.57;;
17596;SDS011;8917;50.942;6.946;2022-11-27T12:22:46;6.60;;;4.13;;
17596;SDS011;8917;50.942;6.946;2022-11-27T12:25:23;5.63;;;3.77;;
17596;SDS011;8917;50.942;6.946;2022-11-27T12:28:01;7.13;;;3.90;;
17596;SDS011;8917;50.942;6.946;2022-11-27T12:30:35;6.83;;;4.30;;
17596;SDS011;8917;50.942;6.946;2022-11-27T12:33:08;6.03;;;4.07;;
17596;SDS011;8917;50.942;6.946;2022-11-27T12:35:41;6.40;;;4.17;;
17596;SDS011;8917;50.942;6.946;2022-11-27T12:38:15;6.50;;;3.80;;
17596;SDS011;8917;50.942;6.946;2022-11-27T12:40:52;7.43;;;4.20;;
17596;SDS011;8917;50.942;6.946;2022-11-27T12:43:23;5.93;;;3.80;;
17596;SDS011;8917;50.942;6.946;2022-11-27T12:45:52;5.17;;;3.70;;
17596;SDS011;8917;50.942;6.946;2022-11-27T12:48:23;4.70;;;3.63;;
17596;SDS011;8917;50.942;6.946;2022-11-27T12:50:52;6.03;;;4.13;;
17596;SDS011;8917;50.942;6.946;2022-11-27T12:53:22;6.50;;;3.67;;
17596;SDS011;8917;50.942;6.946;2022-11-27T12:55:55;7.10;;;3.43;;
17596;SDS011;8917;50.942;6.946;2022-11-27T12:58:25;5.77;;;3.60;;
17596;SDS011;8917;50.942;6.946;2022-11-27T13:00:55;6.40;;;3.80;;
17596;SDS011;8917;50.942;6.946;2022-11-27T13:03:24;6.57;;;4.43;;
17596;SDS011;8917;50.942;6.946;2022-11-27T13:05:58;5.00;;;3.60;;
17596;SDS011;8917;50.942;6.946;2022-11-27T13:08:30;6.27;;;3.80;;
17596;SDS011;8917;50.942;6.946;2022-11-27T13:11:05;6.67;;;3.60;;
17596;SDS011;8917;50.942;6.946;2022-11-27T13:13:38;6.33;;;3.40;;
17596;SDS011;8917;50.942;6.946;2022-11-27T13:16:08;4.40;;;3.53;;
17596;SDS011;8917;50.942;6.946;2022-11-27T13:18:38;7.07;;;3.43;;
17596;SDS011;8917;50.942;6.946;2022-11-27T13:21:07;4.63;;;3.43;;
17596;SDS011;8917;50.942;6.946;2022-11-27T13:23:37;5.93;;;3.87;;
17596;SDS011;8917;50.942;6.946;2022-11-27T13:26:12;7.43;;;4.40;;
17596;SDS011;8917;50.942;6.946;2022-11-27T13:28:42;6.90;;;4.00;;
17596;SDS011;8917;50.942;6.946;2022-11-27T13:31:13;4.70;;;3.27;;
17596;SDS011;8917;50.942;6.946;2022-11-27T13:33:44;4.00;;;3.30;;
17596;SDS011;8917;50.942;6.946;2022-11-27T13:36:18;6.87;;;3.30;;
17596;SDS011;8917;50.942;6.946;2022-11-27T13:38:50;6.20;;;3.60;;
17596;SDS011;8917;50.942;6.946;2022-11-27T13:41:20;5.37;;;3.90;;
17596;SDS011;8917;50.942;6.946;2022-11-27T13:43:49;4.70;;;3.27;;
17596;SDS011;8917;50.942;6.946;2022-11-27T13:46:18;4.47;;;3.40;;
17596;SDS011;8917;50.942;6.946;2022-11-27T13:48:47;5.67;;;3.90;;
17596;SDS011;8917;50.942;6.946;2022-11-27T13:51:21;7.50;;;3.73;;
17596;SDS011;8917;50.942;6.946;2022-11-27T13:53:49;6.33;;;3.60;;
17596;SDS011;8917;50.942;6.946;2022-11-27T13:56:26;9.77;;;4.40;;
17596;SDS011;8917;50.942;6.946;2022-11-27T13:58:55;6.47;;;3.90;;
17596;SDS011;8917;50.942;6.946;2022-11-27T14:01:23;5.27;;;3.33;;
17596;SDS011;8917;50.942;6.946;2022-11-27T14:03:51;4.57;;;3.63;;
17596;SDS011;8917;50.942;6.946;2022-11-27T14:06:20;5.93;;;3.63;;
17596;SDS011;8917;50.942;6.946;2022-11-27T14:08:49;5.73;;;3.93;;
17596;SDS011;8917;50.942;6.946;2022-11-27T14:11:26;6.47;;;3.90;;
17596;SDS011;8917;50.942;6.946;2022-11-27T14:13:55;4.83;;;3.40;;
17596;SDS011;8917;50.942;6.946;2022-11-27T14:16:25;8.33;;;6.00;;
17596;SDS011;8917;50.942;6.946;2022-11-27T14:18:54;4.73;;;3.23;;
17596;SDS011;8917;50.942;6.946;2022-11-27T14:21:23;4.40;;;3.30;;
17596;SDS011;8917;50.942;6.946;2022-11-27T14:23:51;4.13;;;3.53;;
17596;SDS011;8917;50.942;6.946;2022-11-27T14:26:20;4.93;;;3.73;;
17596;SDS011;8917;50.942;6.946;2022-11-27T14:28:48;3.63;;;3.30;;
17596;SDS011;8917;50.942;6.946;2022-11-27T14:31:21;4.50;;;3.30;;
17596;SDS011;8917;50.942;6.946;2022-11-27T14:33:48;4.37;;;3.33;;
17596;SDS011;8917;50.942;6.946;2022-11-27T14:36:18;4.90;;;3.10;;
17596;SDS011;8917;50.942;6.946;2022-11-27T14:38:47;5.13;;;3.47;;
17596;SDS011;8917;50.942;6.946;2022-11-27T14:41:15;4.27;;;3.17;;
17596;SDS011;8917;50.942;6.946;2022-11-27T14:43:42;3.60;;;3.07;;
17596;SDS011;8917;50.942;6.946;2022-11-27T14:46:11;4.63;;;3.40;;
17596;SDS011;8917;50.942;6.946;2022-11-27T14:48:43;4.27;;;3.57;;
17596;SDS011;8917;50.942;6.946;2022-11-27T14:51:13;4.73;;;3.70;;
17596;SDS011;8917;50.942;6.946;2022-11-27T14:53:42;5.23;;;3.77;;
17596;SDS011;8917;50.942;6.946;2022-11-27T14:56:10;5.37;;;3.87;;
17596;SDS011;8917;50.942;6.946;2022-11-27T14:58:38;4.60;;;3.90;;
17596;SDS011;8917;50.942;6.946;2022-11-27T15:01:06;4.93;;;3.83;;
17596;SDS011;8917;50.942;6.946;2022-11-27T15:03:34;6.27;;;4.33;;
17596;SDS011;8917;50.942;6.946;2022-11-27T15:06:04;5.97;;;4.07;;
17596;SDS011;8917;50.942;6.946;2022-11-27T15:08:34;5.50;;;4.00;;
17596;SDS011;8917;50.942;6.946;2022-11-27T15:11:02;4.03;;;3.60;;
17596;SDS011;8917;50.942;6.946;2022-11-27T15:13:31;6.33;;;3.97;;